Time;durP1;ratioP1;P1;durP2;ratioP2;P2;SDS_P1;SDS_P2;PMS_P1;PMS_P2;Temp;Humidity;BMP_temperature;BMP_pressure;BME280_temperature;BME280_humidity;BME280_pressure;Samples;Min_cycle;Max_cycle;Signal;HPM_P1;HPM_P2
2021/12/09 00:02:06;;;;;;;4.22;2.40;;;24.00;99.30;;;;;;5030238;28;20381;-83
2021/12/09 00:04:34;;;;;;;3.75;2.35;;;24.10;98.50;;;;;;5032552;28;20388;-86
2021/12/09 00:07:01;;;;;;;3.92;2.30;;;24.10;98.20;;;;;;5011763;28;20395;-85
2021/12/09 00:09:32;;;;;;;4.05;2.13;;;24.30;99.60;;;;;;5011089;28;20481;-85
2021/12/09 00:11:59;;;;;;;3.70;2.40;;;24.90;96.90;;;;;;5018971;28;20413;-85
2021/12/09 00:14:32;;;;;;;3.13;2.20;;;25.40;94.50;;;;;;5031657;28;20428;-84
2021/12/09 00:17:06;;;;;;;3.33;2.20;;;25.40;94.00;;;;;;5030254;28;20388;-85
2021/12/09 00:19:34;;;;;;;3.00;2.10;;;25.00;93.70;;;;;;5032470;28;20420;-84
2021/12/09 00:22:02;;;;;;;3.50;2.13;;;24.80;93.90;;;;;;5029341;28;20381;-85
2021/12/09 00:24:29;;;;;;;3.78;2.38;;;24.90;93.30;;;;;;5028465;28;20369;-86
2021/12/09 00:26:57;;;;;;;3.55;2.20;;;25.60;93.60;;;;;;5009914;28;20453;-87
2021/12/09 00:29:25;;;;;;;4.13;1.92;;;25.80;93.60;;;;;;5007938;28;20486;-85
2021/12/09 00:31:52;;;;;;;3.15;1.98;;;24.20;92.70;;;;;;5008848;28;20415;-84
2021/12/09 00:34:30;;;;;;;2.50;1.90;;;24.20;93.90;;;;;;5008791;28;20389;-85
2021/12/09 00:37:16;;;;;;;3.53;2.10;;;24.30;94.50;;;;;;5007559;28;20469;-86
2021/12/09 00:39:49;;;;;;;3.45;2.05;;;24.10;92.40;;;;;;5011673;28;20395;-87
2021/12/09 00:42:24;;;;;;;4.03;1.92;;;24.00;93.10;;;;;;5011399;28;20371;-82
2021/12/09 00:44:52;;;;;;;2.67;1.90;;;23.70;94.10;;;;;;5029930;28;20715;-87
2021/12/09 00:47:20;;;;;;;3.17;2.17;;;23.60;94.30;;;;;;5013452;28;20739;-85
2021/12/09 00:49:55;;;;;;;3.80;2.53;;;23.70;95.10;;;;;;5012664;28;20412;-83
2021/12/09 00:52:28;;;;;;;4.45;2.10;;;23.90;93.60;;;;;;5026589;28;20407;-84
2021/12/09 00:54:57;;;;;;;4.82;2.60;;;23.90;94.30;;;;;;5008726;28;20371;-83
2021/12/09 00:57:26;;;;;;;4.00;2.00;;;24.00;94.60;;;;;;5014789;28;20397;-81
2021/12/09 00:59:54;;;;;;;4.22;2.30;;;24.20;94.60;;;;;;5031589;28;20378;-86
2021/12/09 01:02:21;;;;;;;3.92;2.10;;;24.70;94.40;;;;;;5033571;28;20377;-82
2021/12/09 01:04:48;;;;;;;4.30;1.92;;;25.00;90.10;;;;;;5031436;28;20449;-84
2021/12/09 01:07:16;;;;;;;4.07;1.80;;;25.10;92.20;;;;;;5030614;28;20389;-81
2021/12/09 01:09:46;;;;;;;4.53;1.70;;;25.20;90.40;;;;;;5014572;28;20374;-85
2021/12/09 01:12:13;;;;;;;2.83;1.80;;;25.30;90.50;;;;;;5017767;28;20491;-83
2021/12/09 01:14:40;;;;;;;4.47;2.17;;;25.20;90.60;;;;;;5028179;28;20459;-86
2021/12/09 01:17:09;;;;;;;3.90;2.00;;;24.90;90.40;;;;;;5012487;28;21017;-81
2021/12/09 01:19:38;;;;;;;3.08;1.92;;;24.50;91.10;;;;;;5010218;28;20382;-85
2021/12/09 01:22:06;;;;;;;3.03;1.90;;;24.30;91.20;;;;;;4991443;28;20398;-84
2021/12/09 01:24:33;;;;;;;4.20;2.03;;;24.50;91.80;;;;;;5010911;28;20380;-83
2021/12/09 01:27:01;;;;;;;6.97;2.85;;;24.90;91.60;;;;;;5015105;28;20396;-85
2021/12/09 01:29:37;;;;;;;5.07;2.25;;;25.30;90.60;;;;;;5035343;28;20366;-84
2021/12/09 01:32:08;;;;;;;4.20;1.98;;;25.40;83.30;;;;;;5033125;28;20437;-83
2021/12/09 01:34:37;;;;;;;3.45;2.05;;;25.50;85.70;;;;;;5024630;28;20387;-85
2021/12/09 01:37:05;;;;;;;4.95;2.50;;;25.40;88.40;;;;;;5007458;28;20396;-86
2021/12/09 01:39:33;;;;;;;22.63;4.18;;;26.20;90.80;;;;;;4990753;28;20820;-89
2021/12/09 01:42:00;;;;;;;3.88;1.90;;;27.30;84.10;;;;;;5006786;28;20466;-86
2021/12/09 01:44:27;;;;;;;1.48;1.15;;;28.30;75.50;;;;;;5007279;28;20394;-89
2021/12/09 01:46:56;;;;;;;2.00;1.20;;;28.70;67.20;;;;;;5018531;28;20476;-85
2021/12/09 01:49:23;;;;;;;2.75;0.98;;;28.00;68.00;;;;;;5026310;28;20480;-84
2021/12/09 01:51:51;;;;;;;2.20;1.00;;;28.10;71.70;;;;;;5007020;28;20411;-86
2021/12/09 01:54:18;;;;;;;1.55;1.17;;;28.90;66.90;;;;;;5006841;28;20482;-84
2021/12/09 01:56:45;;;;;;;4.55;1.50;;;28.90;67.10;;;;;;5006728;28;20382;-86
2021/12/09 01:59:12;;;;;;;2.65;1.30;;;27.80;68.00;;;;;;5006340;28;20376;-85
2021/12/09 02:01:39;;;;;;;2.40;1.30;;;27.10;70.90;;;;;;5012173;28;20394;-86
2021/12/09 02:04:10;;;;;;;1.30;1.15;;;26.40;73.20;;;;;;5024463;28;20383;-85
2021/12/09 02:06:40;;;;;;;1.52;1.10;;;26.40;74.50;;;;;;5006106;28;20403;-85
2021/12/09 02:09:09;;;;;;;1.33;0.90;;;26.80;75.50;;;;;;5007787;28;20776;-85
2021/12/09 02:11:37;;;;;;;1.55;1.10;;;26.80;72.20;;;;;;5010394;28;20921;-82
2021/12/09 02:14:05;;;;;;;1.85;1.00;;;26.70;73.20;;;;;;5017670;28;20405;-84
2021/12/09 02:16:33;;;;;;;1.97;1.00;;;26.80;74.30;;;;;;5011025;28;20736;-87
2021/12/09 02:19:01;;;;;;;1.37;1.20;;;27.50;70.50;;;;;;5011029;28;20379;-90
2021/12/09 02:21:32;;;;;;;3.63;1.20;;;27.50;66.20;;;;;;5010727;28;20407;-90
2021/12/09 02:24:07;;;;;;;1.70;1.00;;;27.40;66.30;;;;;;5010276;28;20383;-87
2021/12/09 02:26:41;;;;;;;1.20;1.10;;;26.60;73.40;;;;;;5010827;28;20421;-82
2021/12/09 02:29:12;;;;;;;3.20;1.05;;;26.40;72.40;;;;;;5009706;28;20402;-86
2021/12/09 02:31:40;;;;;;;2.80;1.10;;;26.30;74.50;;;;;;5010566;28;20438;-84
2021/12/09 02:34:08;;;;;;;1.88;1.23;;;26.00;74.30;;;;;;5009383;28;20386;-82
2021/12/09 02:36:38;;;;;;;1.15;1.05;;;25.90;75.60;;;;;;5009962;28;20799;-87
2021/12/09 02:39:08;;;;;;;1.63;1.17;;;26.00;74.30;;;;;;4993395;28;20783;-84
2021/12/09 02:41:37;;;;;;;1.63;1.20;;;26.00;75.20;;;;;;5009248;28;20423;-86
2021/12/09 02:44:08;;;;;;;2.33;1.30;;;25.80;74.90;;;;;;5009795;28;20473;-86
2021/12/09 02:46:38;;;;;;;1.90;1.08;;;25.60;77.60;;;;;;5010793;28;20438;-86
2021/12/09 02:49:12;;;;;;;2.00;1.05;;;25.40;77.10;;;;;;5008951;28;21186;-84
2021/12/09 02:51:39;;;;;;;1.98;1.00;;;25.20;77.90;;;;;;5009386;28;20411;-83
2021/12/09 02:54:09;;;;;;;1.20;1.10;;;25.10;79.20;;;;;;5009600;28;20386;-83
2021/12/09 02:56:36;;;;;;;2.17;1.20;;;24.90;79.40;;;;;;5009053;28;20427;-86
2021/12/09 02:59:04;;;;;;;2.63;1.10;;;24.80;81.30;;;;;;5009703;28;20388;-83
2021/12/09 03:01:43;;;;;;;1.95;1.10;;;25.00;81.50;;;;;;5023887;28;20401;-85
2021/12/09 03:04:10;;;;;;;0.98;0.90;;;25.20;80.00;;;;;;5029350;28;20438;-85
2021/12/09 03:06:42;;;;;;;1.15;0.90;;;25.60;78.50;;;;;;5030262;28;20378;-86
2021/12/09 03:09:13;;;;;;;1.20;0.88;;;27.00;72.20;;;;;;5029077;28;20423;-84
2021/12/09 03:11:42;;;;;;;1.40;1.10;;;28.40;66.80;;;;;;5028918;28;20385;-86
2021/12/09 03:14:09;;;;;;;3.50;1.80;;;29.90;64.70;;;;;;5029547;28;20427;-85
2021/12/09 03:16:38;;;;;;;4.22;1.60;;;31.80;62.30;;;;;;5012368;28;20395;-84
2021/12/09 03:19:07;;;;;;;4.10;1.70;;;32.70;58.30;;;;;;5013688;28;20369;-83
2021/12/09 03:21:35;;;;;;;5.18;1.80;;;31.90;58.30;;;;;;5013687;28;20449;-84
2021/12/09 03:24:05;;;;;;;3.90;1.67;;;30.80;60.40;;;;;;5013130;28;20390;-82
2021/12/09 03:26:36;;;;;;;3.50;1.70;;;29.60;62.90;;;;;;5013996;28;20459;-82
2021/12/09 03:29:07;;;;;;;6.10;1.70;;;28.60;66.70;;;;;;5008970;28;20450;-84
2021/12/09 03:31:37;;;;;;;5.60;1.73;;;28.40;68.70;;;;;;5008941;28;20410;-84
2021/12/09 03:34:06;;;;;;;6.43;1.80;;;29.40;68.20;;;;;;5000844;28;20405;-85
2021/12/09 03:36:33;;;;;;;3.50;1.70;;;30.60;66.60;;;;;;5027201;28;20375;-85
2021/12/09 03:39:04;;;;;;;5.68;1.90;;;31.90;59.20;;;;;;5021416;28;20448;-83
2021/12/09 03:41:31;;;;;;;4.93;1.80;;;31.70;58.10;;;;;;5028035;28;20441;-84
2021/12/09 03:43:58;;;;;;;6.20;1.85;;;31.10;59.20;;;;;;5029096;28;20377;-85
2021/12/09 03:46:25;;;;;;;4.67;1.90;;;30.50;60.60;;;;;;5028438;28;20370;-83
2021/12/09 03:48:52;;;;;;;6.72;1.90;;;29.90;63.00;;;;;;5026049;28;20409;-84
2021/12/09 03:51:19;;;;;;;8.52;2.10;;;29.60;64.40;;;;;;5010551;28;20438;-83
2021/12/09 03:53:46;;;;;;;5.53;2.00;;;29.30;65.20;;;;;;5028160;28;20468;-84
2021/12/09 03:56:16;;;;;;;4.78;1.98;;;29.00;65.30;;;;;;5024110;28;20896;-84
2021/12/09 03:58:43;;;;;;;5.60;2.00;;;28.30;68.30;;;;;;5008192;28;20847;-84
2021/12/09 04:01:10;;;;;;;5.03;1.88;;;27.60;71.70;;;;;;5027238;28;20404;-86
2021/12/09 04:03:37;;;;;;;5.53;1.92;;;27.70;74.50;;;;;;5027628;28;20381;-86
2021/12/09 04:06:04;;;;;;;4.57;1.80;;;28.20;71.80;;;;;;5028166;28;20392;-87
2021/12/09 04:08:31;;;;;;;7.05;2.10;;;28.20;70.10;;;;;;5027843;28;20431;-86
2021/12/09 04:10:58;;;;;;;6.68;2.15;;;27.60;71.20;;;;;;5027337;28;20847;-83
2021/12/09 04:13:28;;;;;;;5.93;2.00;;;27.00;73.40;;;;;;5009934;28;20394;-86
2021/12/09 04:15:55;;;;;;;5.53;1.90;;;26.70;75.80;;;;;;5008116;28;20410;-87
2021/12/09 04:18:22;;;;;;;6.10;2.08;;;26.50;77.30;;;;;;5022205;28;20396;-86
2021/12/09 04:20:49;;;;;;;6.60;2.30;;;26.20;78.70;;;;;;5027594;28;20734;-86
2021/12/09 04:23:16;;;;;;;7.82;2.25;;;25.90;80.10;;;;;;5011950;28;20385;-90
2021/12/09 04:25:43;;;;;;;4.47;2.10;;;25.90;80.60;;;;;;5029322;28;20433;-88
2021/12/09 04:28:10;;;;;;;5.55;2.10;;;26.10;81.50;;;;;;5006144;28;20954;-86
2021/12/09 04:30:40;;;;;;;5.00;2.00;;;26.30;80.50;;;;;;5010253;28;20874;-87
2021/12/09 04:33:07;;;;;;;6.00;2.03;;;26.30;81.50;;;;;;5018157;28;20431;-85
2021/12/09 04:35:37;;;;;;;5.68;2.05;;;26.70;78.70;;;;;;5010105;28;20391;-85
2021/12/09 04:38:04;;;;;;;5.03;1.90;;;26.90;78.60;;;;;;5013758;28;20393;-89
2021/12/09 04:40:31;;;;;;;7.53;2.20;;;26.60;77.30;;;;;;5011160;28;20433;-87
2021/12/09 04:43:02;;;;;;;4.68;2.00;;;26.20;79.70;;;;;;5013976;28;20433;-82
2021/12/09 04:45:33;;;;;;;5.13;2.10;;;25.70;82.80;;;;;;5021713;28;20395;-83
2021/12/09 04:48:02;;;;;;;7.18;2.30;;;25.20;85.60;;;;;;5011080;28;20396;-86
2021/12/09 04:50:29;;;;;;;7.32;2.25;;;24.90;88.60;;;;;;5005900;28;20494;-83
2021/12/09 04:53:00;;;;;;;6.28;2.10;;;24.70;90.00;;;;;;5010440;28;20457;-84
2021/12/09 04:55:28;;;;;;;6.63;2.17;;;24.30;91.60;;;;;;5010005;28;20371;-85
2021/12/09 04:57:58;;;;;;;3.92;1.02;;;23.80;92.70;;;;;;4999557;28;20431;-83
2021/12/09 05:00:32;;;;;;;5.15;1.08;;;22.80;85.20;;;;;;4973425;28;20849;-82
2021/12/09 05:03:08;;;;;;;7.25;2.10;;;21.10;96.70;;;;;;4997938;28;20974;-83
2021/12/09 05:05:40;;;;;;;15.35;2.70;;;19.00;99.90;;;;;;5008194;28;20450;-84
2021/12/09 05:08:10;;;;;;;3.35;1.70;;;18.00;99.90;;;;;;4990832;28;20878;-82
2021/12/09 05:11:03;;;;;;;4.32;2.03;;;17.50;99.90;;;;;;5007117;28;20797;-77
2021/12/09 05:13:32;;;;;;;4.28;1.40;;;17.40;99.90;;;;;;5007893;28;20465;-81
2021/12/09 05:16:01;;;;;;;3.40;1.00;;;17.50;99.90;;;;;;5007676;28;20379;-80
2021/12/09 05:18:31;;;;;;;2.13;0.75;;;17.70;99.90;;;;;;5005314;28;20454;-78
2021/12/09 05:20:59;;;;;;;1.37;0.73;;;17.90;99.90;;;;;;5027156;28;20453;-78
2021/12/09 05:23:27;;;;;;;1.60;0.80;;;18.50;99.90;;;;;;5020048;28;20374;-79
2021/12/09 05:25:54;;;;;;;2.50;1.20;;;19.00;99.90;;;;;;5006386;28;20382;-78
2021/12/09 05:28:30;;;;;;;2.97;1.83;;;18.70;99.90;;;;;;5006993;28;20394;-80
2021/12/09 05:33:44;;;;;;;11.43;4.40;;;18.70;99.90;;;;;;5006626;28;20499;-78
2021/12/09 05:36:11;;;;;;;7.80;3.92;;;19.70;99.90;;;;;;5017625;28;20461;-80
2021/12/09 05:38:39;;;;;;;2.83;1.70;;;20.70;99.90;;;;;;5026446;28;20416;-76
2021/12/09 05:41:06;;;;;;;2.47;1.40;;;21.40;99.90;;;;;;5025988;28;20401;-80
2021/12/09 05:43:33;;;;;;;1.75;1.13;;;22.00;99.90;;;;;;5028688;28;20738;-81
2021/12/09 05:46:00;;;;;;;2.55;1.20;;;22.40;99.90;;;;;;5030574;28;20378;-78
2021/12/09 05:48:27;;;;;;;2.13;1.17;;;23.00;99.90;;;;;;4996417;28;20451;-81
2021/12/09 05:50:55;;;;;;;2.25;1.05;;;23.30;99.90;;;;;;4990902;28;20369;-80
2021/12/09 05:53:22;;;;;;;1.20;0.88;;;23.80;99.90;;;;;;4994068;28;20385;-82
2021/12/09 05:55:49;;;;;;;1.85;0.95;;;23.90;99.90;;;;;;5003182;28;20399;-83
2021/12/09 05:58:18;;;;;;;2.63;1.30;;;23.70;99.90;;;;;;4991137;28;20869;-81
2021/12/09 06:00:45;;;;;;;2.47;1.40;;;23.20;99.90;;;;;;4973926;28;20392;-81
2021/12/09 06:03:12;;;;;;;3.42;1.80;;;23.40;99.90;;;;;;4974338;28;20835;-81
2021/12/09 06:05:39;;;;;;;3.67;2.00;;;24.30;99.90;;;;;;5003619;28;20728;-80
2021/12/09 06:08:07;;;;;;;4.68;2.20;;;24.90;99.90;;;;;;4991211;28;20454;-78
2021/12/09 06:10:36;;;;;;;4.72;2.03;;;25.60;99.90;;;;;;4991505;28;20384;-81
2021/12/09 06:13:04;;;;;;;4.47;2.17;;;25.70;98.60;;;;;;4991223;28;20411;-83
2021/12/09 06:15:31;;;;;;;5.50;2.40;;;25.10;98.30;;;;;;4999197;28;20394;-89
2021/12/09 06:17:58;;;;;;;4.68;2.40;;;25.00;99.90;;;;;;5011743;28;20399;-81
2021/12/09 06:20:26;;;;;;;6.60;2.33;;;24.60;99.70;;;;;;5015366;28;20425;-84
2021/12/09 06:22:54;;;;;;;5.38;2.40;;;24.00;99.90;;;;;;4997945;28;20392;-81
2021/12/09 06:25:21;;;;;;;6.78;2.30;;;23.40;99.90;;;;;;4991607;28;20463;-85
2021/12/09 06:27:51;;;;;;;5.93;2.30;;;22.90;99.90;;;;;;4994358;28;20392;-86
2021/12/09 06:30:20;;;;;;;5.60;2.58;;;22.50;99.90;;;;;;4993460;28;20403;-84
2021/12/09 06:32:48;;;;;;;6.00;2.70;;;22.20;99.90;;;;;;4992810;28;20400;-84
2021/12/09 06:35:16;;;;;;;4.57;2.30;;;21.90;99.90;;;;;;4974575;28;20897;-86
2021/12/09 06:37:45;;;;;;;5.22;2.30;;;21.50;99.90;;;;;;4991814;28;20896;-84
2021/12/09 06:40:23;;;;;;;5.97;2.20;;;21.20;99.90;;;;;;4996212;28;20416;-82
2021/12/09 06:42:51;;;;;;;3.97;2.20;;;20.90;99.90;;;;;;4991387;28;20387;-87
2021/12/09 06:45:21;;;;;;;6.15;2.40;;;20.70;99.90;;;;;;4991082;28;20385;-85
2021/12/09 06:47:50;;;;;;;4.82;2.50;;;20.40;99.90;;;;;;4992489;28;20400;-85
2021/12/09 06:50:19;;;;;;;6.05;2.67;;;20.40;99.90;;;;;;5020440;28;20401;-94
2021/12/09 06:52:46;;;;;;;6.43;3.00;;;20.20;99.90;;;;;;5009706;28;20414;-83
2021/12/09 06:55:18;;;;;;;8.18;3.22;;;20.10;99.90;;;;;;5009035;28;20751;-83
2021/12/09 06:57:45;;;;;;;6.90;3.33;;;20.00;99.90;;;;;;5010184;28;20386;-85
2021/12/09 07:00:16;;;;;;;8.47;3.50;;;20.00;99.90;;;;;;5019918;28;20377;-85
2021/12/09 07:02:44;;;;;;;10.23;4.68;;;19.80;99.90;;;;;;5014006;28;20414;-84
2021/12/09 07:05:13;;;;;;;8.00;5.18;;;19.70;99.90;;;;;;5008197;28;20390;-87
2021/12/09 07:07:40;;;;;;;13.73;11.30;;;19.60;99.90;;;;;;5018371;28;20853;-83
2021/12/09 07:10:13;;;;;;;11.30;7.57;;;19.40;99.90;;;;;;5015175;28;20769;-86
2021/12/09 07:12:40;;;;;;;8.25;4.60;;;19.30;99.90;;;;;;5008651;28;20461;-86
2021/12/09 07:15:10;;;;;;;7.72;4.53;;;19.10;99.90;;;;;;5005719;28;20381;-81
2021/12/09 07:17:37;;;;;;;10.23;4.47;;;19.00;99.90;;;;;;4990461;28;20485;-81
2021/12/09 07:20:07;;;;;;;11.25;5.15;;;18.90;99.90;;;;;;4990931;28;20472;-88
2021/12/09 07:22:34;;;;;;;12.55;5.10;;;18.90;99.90;;;;;;4991790;28;20384;-84
2021/12/09 07:25:01;;;;;;;10.75;5.10;;;18.90;99.90;;;;;;5010261;28;20380;-83
2021/12/09 07:27:28;;;;;;;10.50;4.95;;;19.00;99.90;;;;;;5010828;28;20452;-85
2021/12/09 07:29:56;;;;;;;7.88;4.68;;;19.00;99.90;;;;;;5010408;28;20390;-85
2021/12/09 07:32:24;;;;;;;9.90;4.95;;;19.10;99.90;;;;;;5011330;28;20422;-81
2021/12/09 07:34:51;;;;;;;11.40;4.65;;;19.10;99.90;;;;;;5011541;28;20437;-86
2021/12/09 07:37:18;;;;;;;9.23;4.93;;;19.10;99.90;;;;;;5009007;28;20388;-84
2021/12/09 07:39:45;;;;;;;10.57;4.93;;;19.10;99.90;;;;;;5009831;28;20902;-87
2021/12/09 07:42:14;;;;;;;9.40;4.60;;;19.10;99.90;;;;;;5008996;28;20459;-86
2021/12/09 07:44:40;;;;;;;8.52;5.10;;;19.10;99.90;;;;;;5023033;28;20407;-87
2021/12/09 07:47:07;;;;;;;9.35;4.97;;;19.10;99.90;;;;;;5019794;28;20538;-81
2021/12/09 07:49:34;;;;;;;8.93;4.85;;;19.20;99.90;;;;;;5009141;28;20475;-81
2021/12/09 07:52:04;;;;;;;11.93;5.13;;;19.30;99.90;;;;;;5008052;28;20413;-82
2021/12/09 07:54:31;;;;;;;10.23;4.93;;;19.30;99.90;;;;;;4993101;28;20381;-82
2021/12/09 07:56:58;;;;;;;10.88;5.40;;;19.30;99.90;;;;;;5008996;28;20482;-82
2021/12/09 07:59:26;;;;;;;10.82;5.10;;;19.20;99.90;;;;;;4992133;28;20379;-83
2021/12/09 08:01:53;;;;;;;10.05;4.72;;;19.20;99.90;;;;;;5008430;28;20391;-82
2021/12/09 08:04:20;;;;;;;7.13;4.20;;;19.20;99.90;;;;;;5015939;28;20389;-83
2021/12/09 08:06:47;;;;;;;12.07;5.05;;;19.10;99.90;;;;;;5021177;28;20402;-81
2021/12/09 08:09:14;;;;;;;9.82;5.40;;;19.00;99.90;;;;;;5008034;28;20386;-82
2021/12/09 08:11:43;;;;;;;10.10;5.03;;;18.90;99.90;;;;;;5008074;28;21112;-82
2021/12/09 08:14:11;;;;;;;10.60;5.00;;;18.90;99.90;;;;;;5008337;28;20466;-84
2021/12/09 08:16:39;;;;;;;11.40;4.95;;;18.90;99.90;;;;;;5010766;28;20382;-81
2021/12/09 08:19:09;;;;;;;9.35;4.82;;;18.90;99.90;;;;;;5008017;28;20402;-83
2021/12/09 08:21:37;;;;;;;7.88;4.32;;;18.90;99.90;;;;;;5007431;28;20391;-81
2021/12/09 08:24:09;;;;;;;7.30;3.90;;;18.80;99.90;;;;;;5007621;28;20398;-82
2021/12/09 08:26:38;;;;;;;9.40;4.22;;;18.80;99.90;;;;;;5013826;28;20490;-85
2021/12/09 08:29:16;;;;;;;8.75;4.20;;;18.70;99.90;;;;;;5104054;27;20392;-85
2021/12/09 08:31:43;;;;;;;9.70;4.57;;;18.80;99.90;;;;;;5091432;28;20723;-83
2021/12/09 08:34:11;;;;;;;9.38;4.47;;;18.80;99.90;;;;;;5093091;28;20486;-82
2021/12/09 08:36:38;;;;;;;10.32;4.50;;;18.80;99.90;;;;;;5084309;28;20414;-88
2021/12/09 08:39:06;;;;;;;10.90;4.80;;;18.80;99.90;;;;;;5085285;28;20376;-86
2021/12/09 08:41:33;;;;;;;9.25;5.10;;;18.80;99.90;;;;;;5087054;28;20389;-85
2021/12/09 08:44:00;;;;;;;11.52;6.20;;;18.70;99.90;;;;;;5084736;28;20432;-85
2021/12/09 08:46:27;;;;;;;14.63;7.82;;;18.60;99.90;;;;;;5083742;28;20938;-86
2021/12/09 08:48:56;;;;;;;14.70;6.90;;;18.50;99.90;;;;;;5084447;28;20448;-84
2021/12/09 08:51:24;;;;;;;15.10;7.83;;;18.40;99.90;;;;;;5104179;28;20379;-82
2021/12/09 08:53:52;;;;;;;12.98;7.13;;;18.40;99.90;;;;;;5104337;28;20380;-86
2021/12/09 08:56:19;;;;;;;15.98;7.97;;;18.30;99.90;;;;;;5104138;28;20371;-81
2021/12/09 08:58:46;;;;;;;13.15;7.60;;;18.30;99.90;;;;;;5103147;28;20387;-85
2021/12/09 09:01:15;;;;;;;13.30;5.80;;;18.20;99.90;;;;;;5097658;28;20440;-83
2021/12/09 09:03:42;;;;;;;13.87;5.83;;;18.20;99.90;;;;;;5083671;28;20396;-78
2021/12/09 09:06:09;;;;;;;10.60;5.18;;;18.10;99.90;;;;;;5084230;28;20380;-84
2021/12/09 09:08:36;;;;;;;9.55;4.70;;;18.00;99.90;;;;;;5082863;28;20398;-84
2021/12/09 09:11:03;;;;;;;12.15;5.60;;;17.90;99.90;;;;;;5083716;28;20384;-83
2021/12/09 09:13:32;;;;;;;14.73;5.40;;;18.00;99.90;;;;;;5083079;28;20464;-80
2021/12/09 09:15:59;;;;;;;13.40;6.40;;;18.00;99.90;;;;;;5084791;28;20473;-82
2021/12/09 09:18:26;;;;;;;14.45;7.38;;;18.00;99.90;;;;;;5084254;28;20784;-83
2021/12/09 09:20:53;;;;;;;13.40;6.75;;;17.90;99.90;;;;;;5084170;28;20403;-83
2021/12/09 09:23:22;;;;;;;20.65;10.70;;;17.90;99.90;;;;;;5083877;28;20887;-82
2021/12/09 09:25:50;;;;;;;20.70;12.52;;;17.90;99.90;;;;;;5083162;28;20392;-83
2021/12/09 09:28:17;;;;;;;19.52;11.75;;;17.90;99.90;;;;;;5083151;28;20406;-84
2021/12/09 09:30:53;;;;;;;20.52;9.30;;;17.90;99.90;;;;;;5083069;28;20395;-84
2021/12/09 09:33:22;;;;;;;14.45;7.90;;;17.90;99.90;;;;;;5083217;28;20412;-84
2021/12/09 09:35:49;;;;;;;12.73;5.50;;;18.00;99.90;;;;;;5083003;28;20737;-84
2021/12/09 09:38:18;;;;;;;9.90;5.10;;;18.00;99.90;;;;;;5082992;28;20943;-84
2021/12/09 09:41:02;;;;;;;9.18;4.90;;;18.00;99.90;;;;;;5068878;28;20370;-84
2021/12/09 09:46:28;;;;;;;10.30;4.50;;;18.10;99.90;;;;;;5090005;28;20410;-84
2021/12/09 09:48:58;;;;;;;10.18;3.88;;;18.10;99.90;;;;;;5091124;28;20417;-81
2021/12/09 09:51:27;;;;;;;9.55;4.10;;;18.10;99.90;;;;;;5091061;28;20855;-80
2021/12/09 09:53:54;;;;;;;9.20;3.60;;;18.10;99.90;;;;;;5091805;28;20458;-83
2021/12/09 09:56:23;;;;;;;9.00;3.67;;;18.10;99.90;;;;;;5091186;28;20455;-83
2021/12/09 09:58:57;;;;;;;6.95;3.28;;;18.10;99.90;;;;;;5091229;28;20388;-80
2021/12/09 10:01:26;;;;;;;7.43;3.17;;;18.20;99.90;;;;;;5091261;28;20396;-78
2021/12/09 10:04:09;;;;;;;8.80;3.60;;;18.10;99.90;;;;;;5090831;28;20404;-80
2021/12/09 10:06:40;;;;;;;8.20;3.40;;;18.10;99.90;;;;;;5090951;28;20426;-80
2021/12/09 10:09:08;;;;;;;8.48;3.72;;;18.10;99.90;;;;;;5091606;28;20389;-77
2021/12/09 10:11:37;;;;;;;7.68;3.70;;;18.10;99.90;;;;;;5090946;28;20408;-78
2021/12/09 10:14:25;;;;;;;6.85;3.38;;;18.10;99.90;;;;;;5090854;28;20378;-78
2021/12/09 10:17:12;;;;;;;6.22;3.70;;;18.00;99.90;;;;;;5090965;28;20439;-85
2021/12/09 10:19:46;;;;;;;10.45;5.40;;;18.00;99.90;;;;;;5091133;28;20375;-83
2021/12/09 10:22:16;;;;;;;12.05;6.20;;;18.00;99.90;;;;;;5092300;28;20375;-89
2021/12/09 10:24:45;;;;;;;9.32;4.78;;;18.00;99.90;;;;;;5091612;28;20406;-88
2021/12/09 10:27:27;;;;;;;10.23;5.70;;;17.90;99.90;;;;;;5091043;28;20411;-84
2021/12/09 10:30:00;;;;;;;11.67;7.00;;;17.90;99.90;;;;;;5091032;28;20506;-87
2021/12/09 10:32:32;;;;;;;15.23;5.97;;;17.80;99.90;;;;;;5090667;28;20368;-82
2021/12/09 10:35:17;;;;;;;12.60;6.13;;;17.80;99.90;;;;;;5090802;28;20390;-82
2021/12/09 10:37:49;;;;;;;10.93;5.07;;;17.80;99.90;;;;;;5090654;28;20447;-87
2021/12/09 10:40:18;;;;;;;8.57;4.73;;;17.80;99.90;;;;;;5090536;28;20474;-81
2021/12/09 10:42:52;;;;;;;15.15;8.25;;;17.70;99.90;;;;;;5090664;28;20372;-85
2021/12/09 10:45:28;;;;;;;14.05;5.60;;;17.80;99.90;;;;;;5090229;28;20408;-83
2021/12/09 10:48:31;;;;;;;13.00;7.00;;;17.70;99.90;;;;;;5092292;28;20886;-86
2021/12/09 10:53:46;;;;;;;14.63;7.53;;;17.50;99.90;;;;;;5090854;28;20797;-83
2021/12/09 10:56:35;;;;;;;11.02;5.80;;;17.50;99.90;;;;;;5090983;28;20375;-83
2021/12/09 10:59:04;;;;;;;10.15;6.70;;;17.50;99.90;;;;;;5090207;28;20438;-85
2021/12/09 11:01:31;;;;;;;13.63;6.93;;;17.40;99.90;;;;;;5090120;28;20377;-85
2021/12/09 11:04:03;;;;;;;12.50;7.50;;;17.40;99.90;;;;;;5090002;28;20384;-82
2021/12/09 11:06:35;;;;;;;15.63;7.80;;;17.30;99.90;;;;;;5090114;28;20375;-81
2021/12/09 11:09:07;;;;;;;13.10;7.80;;;17.30;99.90;;;;;;5089979;28;20864;-83
2021/12/09 11:11:39;;;;;;;13.43;7.10;;;17.30;99.90;;;;;;5090068;28;20372;-78
2021/12/09 11:14:29;;;;;;;10.45;6.72;;;17.20;99.90;;;;;;5090089;28;20408;-82
2021/12/09 11:17:06;;;;;;;18.27;10.10;;;17.30;99.90;;;;;;5084647;28;20499;-81
2021/12/09 11:19:47;;;;;;;13.63;9.05;;;17.30;99.90;;;;;;5090135;28;20464;-84
2021/12/09 11:22:20;;;;;;;13.77;7.03;;;17.30;99.90;;;;;;5089831;28;20376;-78
2021/12/09 11:24:56;;;;;;;11.60;7.30;;;17.20;99.90;;;;;;5089884;28;20844;-83
2021/12/09 11:27:25;;;;;;;10.43;6.10;;;17.20;99.90;;;;;;5097620;28;20408;-79
2021/12/09 11:29:56;;;;;;;9.27;6.80;;;17.10;99.90;;;;;;5106717;28;20365;-81
2021/12/09 11:32:41;;;;;;;13.05;6.30;;;17.20;99.90;;;;;;5106962;28;20440;-78
2021/12/09 11:35:25;;;;;;;10.07;6.10;;;17.10;99.90;;;;;;5102858;28;20843;-77
2021/12/09 11:40:51;;;;;;;11.48;6.47;;;17.00;99.90;;;;;;5090789;28;20369;-83
2021/12/09 11:43:19;;;;;;;8.57;6.18;;;17.10;99.90;;;;;;5089224;28;20404;-82
2021/12/09 11:45:48;;;;;;;12.75;8.07;;;17.10;99.90;;;;;;5089537;28;20392;-81
2021/12/09 11:48:16;;;;;;;10.50;6.57;;;17.10;99.90;;;;;;5089214;28;20412;-80
2021/12/09 11:50:49;;;;;;;10.80;6.82;;;17.00;99.90;;;;;;5089981;28;20380;-77
2021/12/09 11:53:18;;;;;;;12.13;7.90;;;17.00;99.90;;;;;;5089224;28;20372;-77
2021/12/09 11:55:57;;;;;;;11.33;7.10;;;17.10;99.90;;;;;;5088806;28;20460;-82
2021/12/09 11:58:28;;;;;;;12.27;7.35;;;17.10;99.90;;;;;;5088897;28;20389;-76
2021/12/09 12:32:19;;;;;;;10.07;7.27;;;17.40;99.90;;;;;;5088511;28;20726;-84
2021/12/09 12:38:07;;;;;;;15.98;9.32;;;17.40;99.90;;;;;;5088524;28;20844;-78
2021/12/09 12:40:42;;;;;;;15.75;9.65;;;17.40;99.90;;;;;;5088500;28;20372;-84
2021/12/09 12:43:14;;;;;;;15.38;9.88;;;17.30;99.90;;;;;;5088565;28;20365;-84
2021/12/09 12:51:46;;;;;;;15.05;9.60;;;17.20;99.90;;;;;;5088677;28;20372;-79
2021/12/09 12:54:21;;;;;;;11.05;8.02;;;17.20;99.90;;;;;;5088093;28;20459;-79
2021/12/09 12:56:57;;;;;;;13.32;9.35;;;17.10;99.90;;;;;;5088555;28;20419;-81
2021/12/09 12:59:36;;;;;;;13.68;9.55;;;17.10;99.90;;;;;;5088251;28;20400;-84
2021/12/09 13:07:29;;;;;;;14.18;9.85;;;17.10;99.90;;;;;;5088235;28;20921;-84
2021/12/09 13:10:25;;;;;;;2.45;2.03;;;17.10;99.90;;;;;;5088072;28;20843;-80
2021/12/09 13:19:31;;;;;;;3.92;1.48;;;15.50;99.90;;;;;;5092178;28;20429;-78
2021/12/09 13:22:18;;;;;;;3.97;1.70;;;15.20;99.90;;;;;;5091865;28;20439;-85
2021/12/09 13:25:01;;;;;;;4.35;1.65;;;15.10;99.90;;;;;;5091590;28;20388;-84
2021/12/09 13:28:00;;;;;;;3.97;1.45;;;15.00;99.90;;;;;;5091528;28;20483;-81
2021/12/09 13:31:03;;;;;;;2.50;1.48;;;14.90;99.90;;;;;;5091642;28;20372;-78
2021/12/09 13:33:48;;;;;;;3.95;1.50;;;14.80;99.90;;;;;;5090261;28;20384;-81
2021/12/09 13:36:36;;;;;;;3.25;1.70;;;14.80;99.90;;;;;;5091605;28;20372;-80
2021/12/09 13:50:17;;;;;;;2.05;1.30;;;14.50;99.90;;;;;;5091305;28;20368;-79
2021/12/09 13:55:25;;;;;;;2.70;1.60;;;14.50;99.90;;;;;;5091210;28;20395;-80
2021/12/09 13:57:57;;;;;;;3.03;1.80;;;14.50;99.90;;;;;;5091337;28;20357;-80
2021/12/09 14:00:31;;;;;;;3.90;1.70;;;14.50;99.90;;;;;;5091175;28;20368;-79
2021/12/09 14:03:02;;;;;;;4.80;1.60;;;14.50;99.90;;;;;;5091164;28;20372;-79
2021/12/09 14:05:50;;;;;;;2.75;1.77;;;14.50;99.90;;;;;;5090995;28;20361;-78
2021/12/09 14:08:32;;;;;;;5.70;2.00;;;14.50;99.90;;;;;;5090789;28;20475;-81
2021/12/09 14:11:03;;;;;;;4.47;2.10;;;14.50;99.90;;;;;;5090754;28;20402;-78
2021/12/09 14:13:34;;;;;;;4.28;1.90;;;14.50;99.90;;;;;;5090768;28;20400;-81
2021/12/09 14:16:10;;;;;;;3.80;1.83;;;14.60;99.90;;;;;;5090754;28;20413;-82
2021/12/09 14:21:25;;;;;;;5.07;1.70;;;14.50;99.90;;;;;;5090749;28;20360;-82